sensor_id;sensor_type;location;lat;lon;timestamp;P1;durP1;ratioP1;P2;durP2;ratioP2
41943;SDS011;27636;52.610;13.244;2023-12-20T00:02:14;11.50;;;4.15;;
41943;SDS011;27636;52.610;13.244;2023-12-20T00:07:19;9.02;;;4.10;;
41943;SDS011;27636;52.610;13.244;2023-12-20T00:12:23;6.45;;;2.95;;
41943;SDS011;27636;52.610;13.244;2023-12-20T00:22:33;7.88;;;4.18;;
41943;SDS011;27636;52.610;13.244;2023-12-20T00:27:37;8.85;;;3.35;;
41943;SDS011;27636;52.610;13.244;2023-12-20T00:32:42;7.82;;;3.42;;
41943;SDS011;27636;52.610;13.244;2023-12-20T00:37:49;11.13;;;4.45;;
41943;SDS011;27636;52.610;13.244;2023-12-20T00:42:53;8.30;;;3.38;;
41943;SDS011;27636;52.610;13.244;2023-12-20T00:47:58;9.07;;;4.28;;
41943;SDS011;27636;52.610;13.244;2023-12-20T00:53:03;9.57;;;3.53;;
41943;SDS011;27636;52.610;13.244;2023-12-20T00:58:07;6.82;;;3.38;;
41943;SDS011;27636;52.610;13.244;2023-12-20T01:03:12;10.48;;;3.95;;
41943;SDS011;27636;52.610;13.244;2023-12-20T01:08:18;7.68;;;3.28;;
41943;SDS011;27636;52.610;13.244;2023-12-20T01:13:22;7.32;;;2.88;;
41943;SDS011;27636;52.610;13.244;2023-12-20T01:18:27;7.40;;;3.13;;
41943;SDS011;27636;52.610;13.244;2023-12-20T01:23:31;7.40;;;3.25;;
41943;SDS011;27636;52.610;13.244;2023-12-20T01:28:35;10.35;;;3.08;;
41943;SDS011;27636;52.610;13.244;2023-12-20T01:33:40;7.20;;;2.83;;
41943;SDS011;27636;52.610;13.244;2023-12-20T01:38:44;5.70;;;2.90;;
41943;SDS011;27636;52.610;13.244;2023-12-20T01:43:48;6.68;;;3.08;;
41943;SDS011;27636;52.610;13.244;2023-12-20T01:48:55;6.93;;;2.80;;
41943;SDS011;27636;52.610;13.244;2023-12-20T01:59:03;7.33;;;2.57;;
41943;SDS011;27636;52.610;13.244;2023-12-20T02:04:09;5.57;;;1.53;;
41943;SDS011;27636;52.610;13.244;2023-12-20T02:14:18;3.15;;;1.63;;
41943;SDS011;27636;52.610;13.244;2023-12-20T02:19:23;7.05;;;2.88;;
41943;SDS011;27636;52.610;13.244;2023-12-20T02:24:28;3.28;;;1.58;;
41943;SDS011;27636;52.610;13.244;2023-12-20T02:29:33;2.13;;;0.90;;
41943;SDS011;27636;52.610;13.244;2023-12-20T02:34:37;2.17;;;0.80;;
41943;SDS011;27636;52.610;13.244;2023-12-20T02:39:43;2.80;;;1.35;;
41943;SDS011;27636;52.610;13.244;2023-12-20T02:44:46;8.15;;;1.80;;
41943;SDS011;27636;52.610;13.244;2023-12-20T02:49:50;1.88;;;0.98;;
41943;SDS011;27636;52.610;13.244;2023-12-20T02:54:58;3.42;;;1.50;;
41943;SDS011;27636;52.610;13.244;2023-12-20T03:00:02;6.75;;;1.17;;
41943;SDS011;27636;52.610;13.244;2023-12-20T03:05:07;6.03;;;1.83;;
41943;SDS011;27636;52.610;13.244;2023-12-20T03:10:16;2.03;;;1.13;;
41943;SDS011;27636;52.610;13.244;2023-12-20T03:15:29;13.32;;;2.65;;
41943;SDS011;27636;52.610;13.244;2023-12-20T03:20:33;5.38;;;1.40;;
41943;SDS011;27636;52.610;13.244;2023-12-20T03:25:39;4.13;;;1.60;;
41943;SDS011;27636;52.610;13.244;2023-12-20T03:30:43;6.15;;;1.73;;
41943;SDS011;27636;52.610;13.244;2023-12-20T03:35:48;4.63;;;1.85;;
41943;SDS011;27636;52.610;13.244;2023-12-20T03:40:53;4.45;;;1.63;;
41943;SDS011;27636;52.610;13.244;2023-12-20T03:45:57;2.20;;;1.17;;
41943;SDS011;27636;52.610;13.244;2023-12-20T03:51:03;7.60;;;1.38;;
41943;SDS011;27636;52.610;13.244;2023-12-20T03:56:09;4.10;;;1.33;;
41943;SDS011;27636;52.610;13.244;2023-12-20T04:01:13;5.60;;;2.05;;
41943;SDS011;27636;52.610;13.244;2023-12-20T04:06:17;4.28;;;1.17;;
41943;SDS011;27636;52.610;13.244;2023-12-20T04:11:24;7.35;;;1.52;;
41943;SDS011;27636;52.610;13.244;2023-12-20T04:21:32;6.50;;;1.90;;
41943;SDS011;27636;52.610;13.244;2023-12-20T04:26:37;11.98;;;1.63;;
41943;SDS011;27636;52.610;13.244;2023-12-20T04:31:41;5.35;;;1.67;;
41943;SDS011;27636;52.610;13.244;2023-12-20T04:36:45;19.05;;;1.65;;
41943;SDS011;27636;52.610;13.244;2023-12-20T04:41:51;3.55;;;1.20;;
41943;SDS011;27636;52.610;13.244;2023-12-20T04:46:55;6.38;;;1.58;;
41943;SDS011;27636;52.610;13.244;2023-12-20T04:52:00;8.35;;;2.05;;
41943;SDS011;27636;52.610;13.244;2023-12-20T04:57:06;3.83;;;1.02;;
41943;SDS011;27636;52.610;13.244;2023-12-20T05:02:10;2.47;;;1.08;;
41943;SDS011;27636;52.610;13.244;2023-12-20T05:07:15;14.18;;;1.48;;
41943;SDS011;27636;52.610;13.244;2023-12-20T05:12:22;8.30;;;3.13;;
41943;SDS011;27636;52.610;13.244;2023-12-20T05:17:26;8.15;;;1.17;;
41943;SDS011;27636;52.610;13.244;2023-12-20T05:22:30;7.07;;;1.37;;
41943;SDS011;27636;52.610;13.244;2023-12-20T05:27:36;6.00;;;1.63;;
41943;SDS011;27636;52.610;13.244;2023-12-20T05:32:41;3.85;;;1.58;;
41943;SDS011;27636;52.610;13.244;2023-12-20T05:37:45;5.88;;;1.58;;
41943;SDS011;27636;52.610;13.244;2023-12-20T05:42:52;1.17;;;0.60;;
41943;SDS011;27636;52.610;13.244;2023-12-20T05:47:57;5.47;;;1.40;;
41943;SDS011;27636;52.610;13.244;2023-12-20T05:53:02;4.60;;;1.27;;
41943;SDS011;27636;52.610;13.244;2023-12-20T05:58:08;6.60;;;1.10;;
41943;SDS011;27636;52.610;13.244;2023-12-20T06:08:16;7.25;;;1.75;;
41943;SDS011;27636;52.610;13.244;2023-12-20T06:13:22;11.60;;;1.35;;
41943;SDS011;27636;52.610;13.244;2023-12-20T06:18:26;3.33;;;1.05;;
41943;SDS011;27636;52.610;13.244;2023-12-20T06:23:30;11.33;;;1.43;;
41943;SDS011;27636;52.610;13.244;2023-12-20T06:28:35;3.08;;;1.10;;
41943;SDS011;27636;52.610;13.244;2023-12-20T06:33:44;5.65;;;2.10;;
41943;SDS011;27636;52.610;13.244;2023-12-20T06:38:48;4.95;;;1.63;;
41943;SDS011;27636;52.610;13.244;2023-12-20T06:43:53;11.05;;;2.35;;
41943;SDS011;27636;52.610;13.244;2023-12-20T06:48:57;3.53;;;0.65;;
41943;SDS011;27636;52.610;13.244;2023-12-20T06:54:02;3.88;;;2.00;;
41943;SDS011;27636;52.610;13.244;2023-12-20T06:59:07;4.22;;;2.72;;
41943;SDS011;27636;52.610;13.244;2023-12-20T07:09:15;0.52;;;0.50;;
41943;SDS011;27636;52.610;13.244;2023-12-20T07:14:20;16.92;;;2.45;;
41943;SDS011;27636;52.610;13.244;2023-12-20T07:19:24;3.30;;;1.40;;
41943;SDS011;27636;52.610;13.244;2023-12-20T07:24:28;3.50;;;1.50;;
41943;SDS011;27636;52.610;13.244;2023-12-20T07:29:34;10.73;;;2.35;;
41943;SDS011;27636;52.610;13.244;2023-12-20T07:34:38;3.70;;;1.42;;
41943;SDS011;27636;52.610;13.244;2023-12-20T07:39:42;8.57;;;2.13;;
41943;SDS011;27636;52.610;13.244;2023-12-20T07:44:47;5.63;;;1.97;;
41943;SDS011;27636;52.610;13.244;2023-12-20T07:49:51;12.52;;;2.65;;
41943;SDS011;27636;52.610;13.244;2023-12-20T07:54:56;3.08;;;1.30;;
41943;SDS011;27636;52.610;13.244;2023-12-20T08:00:02;12.52;;;2.20;;
41943;SDS011;27636;52.610;13.244;2023-12-20T08:05:07;8.20;;;2.10;;
41943;SDS011;27636;52.610;13.244;2023-12-20T08:10:12;5.78;;;1.92;;
41943;SDS011;27636;52.610;13.244;2023-12-20T08:15:20;9.52;;;1.50;;
41943;SDS011;27636;52.610;13.244;2023-12-20T08:20:24;8.98;;;2.88;;
41943;SDS011;27636;52.610;13.244;2023-12-20T08:25:42;13.07;;;2.17;;
41943;SDS011;27636;52.610;13.244;2023-12-20T08:30:48;3.90;;;2.20;;
41943;SDS011;27636;52.610;13.244;2023-12-20T08:35:57;6.18;;;1.45;;
41943;SDS011;27636;52.610;13.244;2023-12-20T08:41:01;9.80;;;3.03;;
41943;SDS011;27636;52.610;13.244;2023-12-20T08:46:09;6.93;;;2.90;;
41943;SDS011;27636;52.610;13.244;2023-12-20T08:51:13;5.80;;;2.03;;
41943;SDS011;27636;52.610;13.244;2023-12-20T08:56:17;4.93;;;1.98;;
41943;SDS011;27636;52.610;13.244;2023-12-20T09:01:23;19.60;;;2.55;;
41943;SDS011;27636;52.610;13.244;2023-12-20T09:06:27;4.65;;;1.83;;
41943;SDS011;27636;52.610;13.244;2023-12-20T09:11:31;7.37;;;2.03;;
41943;SDS011;27636;52.610;13.244;2023-12-20T09:21:41;5.70;;;1.92;;
41943;SDS011;27636;52.610;13.244;2023-12-20T09:26:46;10.03;;;1.90;;
41943;SDS011;27636;52.610;13.244;2023-12-20T09:31:51;5.32;;;2.30;;
41943;SDS011;27636;52.610;13.244;2023-12-20T09:36:55;6.65;;;2.00;;
41943;SDS011;27636;52.610;13.244;2023-12-20T09:42:00;17.15;;;3.70;;
41943;SDS011;27636;52.610;13.244;2023-12-20T09:47:07;3.67;;;2.00;;
41943;SDS011;27636;52.610;13.244;2023-12-20T09:52:13;22.20;;;2.38;;
41943;SDS011;27636;52.610;13.244;2023-12-20T09:57:20;15.52;;;2.85;;
41943;SDS011;27636;52.610;13.244;2023-12-20T10:02:25;8.82;;;2.67;;
41943;SDS011;27636;52.610;13.244;2023-12-20T10:07:31;7.95;;;2.33;;
41943;SDS011;27636;52.610;13.244;2023-12-20T10:12:35;13.40;;;2.20;;
41943;SDS011;27636;52.610;13.244;2023-12-20T10:17:40;4.65;;;1.95;;
41943;SDS011;27636;52.610;13.244;2023-12-20T10:22:45;6.50;;;2.13;;
41943;SDS011;27636;52.610;13.244;2023-12-20T10:27:51;9.90;;;2.33;;
41943;SDS011;27636;52.610;13.244;2023-12-20T10:33:15;5.82;;;1.95;;
41943;SDS011;27636;52.610;13.244;2023-12-20T10:38:30;8.05;;;2.72;;
41943;SDS011;27636;52.610;13.244;2023-12-20T10:43:34;11.63;;;2.65;;
41943;SDS011;27636;52.610;13.244;2023-12-20T10:48:40;5.35;;;2.03;;
41943;SDS011;27636;52.610;13.244;2023-12-20T10:53:46;6.20;;;3.22;;
41943;SDS011;27636;52.610;13.244;2023-12-20T10:58:53;15.18;;;2.38;;
41943;SDS011;27636;52.610;13.244;2023-12-20T11:04:00;11.30;;;3.33;;
41943;SDS011;27636;52.610;13.244;2023-12-20T11:09:10;10.57;;;2.30;;
41943;SDS011;27636;52.610;13.244;2023-12-20T11:14:19;14.15;;;2.40;;
41943;SDS011;27636;52.610;13.244;2023-12-20T11:19:29;12.73;;;3.13;;
41943;SDS011;27636;52.610;13.244;2023-12-20T11:29:37;4.43;;;2.33;;
41943;SDS011;27636;52.610;13.244;2023-12-20T11:34:44;13.90;;;3.00;;
41943;SDS011;27636;52.610;13.244;2023-12-20T11:44:56;14.48;;;2.60;;
41943;SDS011;27636;52.610;13.244;2023-12-20T11:50:02;9.85;;;2.35;;
41943;SDS011;27636;52.610;13.244;2023-12-20T11:55:07;10.38;;;1.88;;
41943;SDS011;27636;52.610;13.244;2023-12-20T12:00:12;11.18;;;2.83;;
41943;SDS011;27636;52.610;13.244;2023-12-20T12:05:18;4.10;;;1.60;;
41943;SDS011;27636;52.610;13.244;2023-12-20T12:10:23;8.50;;;2.85;;
41943;SDS011;27636;52.610;13.244;2023-12-20T12:15:28;5.03;;;1.83;;
41943;SDS011;27636;52.610;13.244;2023-12-20T12:20:34;12.90;;;2.25;;
41943;SDS011;27636;52.610;13.244;2023-12-20T12:25:40;10.45;;;1.85;;
41943;SDS011;27636;52.610;13.244;2023-12-20T12:30:55;6.72;;;1.85;;
41943;SDS011;27636;52.610;13.244;2023-12-20T12:36:01;6.67;;;1.53;;
41943;SDS011;27636;52.610;13.244;2023-12-20T12:41:07;13.25;;;3.33;;
41943;SDS011;27636;52.610;13.244;2023-12-20T12:46:13;5.47;;;2.03;;
41943;SDS011;27636;52.610;13.244;2023-12-20T12:51:19;21.73;;;4.27;;
41943;SDS011;27636;52.610;13.244;2023-12-20T13:01:27;4.35;;;2.45;;
41943;SDS011;27636;52.610;13.244;2023-12-20T13:06:32;6.67;;;2.63;;
41943;SDS011;27636;52.610;13.244;2023-12-20T13:11:36;4.78;;;2.05;;
41943;SDS011;27636;52.610;13.244;2023-12-20T13:16:40;10.48;;;2.00;;
41943;SDS011;27636;52.610;13.244;2023-12-20T13:21:46;2.35;;;0.90;;
41943;SDS011;27636;52.610;13.244;2023-12-20T13:26:50;9.02;;;1.58;;
41943;SDS011;27636;52.610;13.244;2023-12-20T13:31:54;3.72;;;1.35;;
41943;SDS011;27636;52.610;13.244;2023-12-20T13:36:59;3.40;;;1.42;;
41943;SDS011;27636;52.610;13.244;2023-12-20T13:42:04;1.13;;;0.65;;
41943;SDS011;27636;52.610;13.244;2023-12-20T13:47:08;1.07;;;0.60;;
41943;SDS011;27636;52.610;13.244;2023-12-20T13:52:13;0.82;;;0.50;;
41943;SDS011;27636;52.610;13.244;2023-12-20T14:02:41;6.88;;;0.75;;
41943;SDS011;27636;52.610;13.244;2023-12-20T14:07:47;3.63;;;0.77;;
41943;SDS011;27636;52.610;13.244;2023-12-20T14:12:51;1.15;;;0.50;;
41943;SDS011;27636;52.610;13.244;2023-12-20T14:17:55;0.40;;;0.40;;
41943;SDS011;27636;52.610;13.244;2023-12-20T14:23:01;3.47;;;0.70;;
41943;SDS011;27636;52.610;13.244;2023-12-20T14:28:05;0.55;;;0.40;;
41943;SDS011;27636;52.610;13.244;2023-12-20T14:33:09;0.73;;;0.32;;
41943;SDS011;27636;52.610;13.244;2023-12-20T14:38:14;2.97;;;0.60;;
41943;SDS011;27636;52.610;13.244;2023-12-20T14:48:22;0.40;;;0.40;;
41943;SDS011;27636;52.610;13.244;2023-12-20T14:53:27;0.40;;;0.40;;
41943;SDS011;27636;52.610;13.244;2023-12-20T14:58:31;1.85;;;0.80;;
41943;SDS011;27636;52.610;13.244;2023-12-20T15:03:36;1.33;;;0.40;;
41943;SDS011;27636;52.610;13.244;2023-12-20T15:08:44;0.90;;;0.45;;
41943;SDS011;27636;52.610;13.244;2023-12-20T15:13:48;3.92;;;0.57;;
41943;SDS011;27636;52.610;13.244;2023-12-20T15:18:58;3.42;;;0.40;;
41943;SDS011;27636;52.610;13.244;2023-12-20T15:24:04;5.55;;;0.65;;
41943;SDS011;27636;52.610;13.244;2023-12-20T15:29:09;0.85;;;0.50;;
41943;SDS011;27636;52.610;13.244;2023-12-20T15:34:15;3.70;;;1.50;;
41943;SDS011;27636;52.610;13.244;2023-12-20T15:39:22;3.92;;;0.75;;
41943;SDS011;27636;52.610;13.244;2023-12-20T15:44:26;2.65;;;0.88;;
41943;SDS011;27636;52.610;13.244;2023-12-20T15:49:30;1.17;;;0.80;;
41943;SDS011;27636;52.610;13.244;2023-12-20T15:54:36;1.80;;;0.50;;
41943;SDS011;27636;52.610;13.244;2023-12-20T15:59:42;1.88;;;0.80;;
41943;SDS011;27636;52.610;13.244;2023-12-20T16:04:46;1.52;;;1.00;;
41943;SDS011;27636;52.610;13.244;2023-12-20T16:09:51;4.00;;;1.00;;
41943;SDS011;27636;52.610;13.244;2023-12-20T16:14:56;4.88;;;2.22;;
41943;SDS011;27636;52.610;13.244;2023-12-20T16:20:00;1.73;;;1.00;;
41943;SDS011;27636;52.610;13.244;2023-12-20T16:25:06;9.27;;;1.90;;
41943;SDS011;27636;52.610;13.244;2023-12-20T16:30:10;6.13;;;0.85;;
41943;SDS011;27636;52.610;13.244;2023-12-20T16:35:15;2.97;;;1.13;;
41943;SDS011;27636;52.610;13.244;2023-12-20T16:40:20;2.40;;;0.90;;
41943;SDS011;27636;52.610;13.244;2023-12-20T16:45:28;2.03;;;0.75;;
41943;SDS011;27636;52.610;13.244;2023-12-20T16:50:32;2.38;;;0.93;;
41943;SDS011;27636;52.610;13.244;2023-12-20T16:55:37;8.87;;;1.37;;
41943;SDS011;27636;52.610;13.244;2023-12-20T17:00:42;4.70;;;1.10;;
41943;SDS011;27636;52.610;13.244;2023-12-20T17:05:46;5.30;;;2.80;;
41943;SDS011;27636;52.610;13.244;2023-12-20T17:10:52;2.33;;;1.00;;
41943;SDS011;27636;52.610;13.244;2023-12-20T17:15:56;1.73;;;0.68;;
41943;SDS011;27636;52.610;13.244;2023-12-20T17:21:00;4.97;;;0.88;;
41943;SDS011;27636;52.610;13.244;2023-12-20T17:31:11;9.75;;;1.50;;
41943;SDS011;27636;52.610;13.244;2023-12-20T17:36:16;0.95;;;0.73;;
41943;SDS011;27636;52.610;13.244;2023-12-20T17:41:21;5.83;;;1.50;;
41943;SDS011;27636;52.610;13.244;2023-12-20T17:46:25;5.03;;;1.55;;
41943;SDS011;27636;52.610;13.244;2023-12-20T17:51:30;5.43;;;1.65;;
41943;SDS011;27636;52.610;13.244;2023-12-20T17:56:35;2.33;;;1.60;;
41943;SDS011;27636;52.610;13.244;2023-12-20T18:01:39;1.77;;;0.82;;
41943;SDS011;27636;52.610;13.244;2023-12-20T18:06:43;10.23;;;1.50;;
41943;SDS011;27636;52.610;13.244;2023-12-20T18:11:48;16.40;;;1.60;;
41943;SDS011;27636;52.610;13.244;2023-12-20T18:16:52;8.27;;;1.42;;
41943;SDS011;27636;52.610;13.244;2023-12-20T18:27:03;6.80;;;2.13;;
41943;SDS011;27636;52.610;13.244;2023-12-20T18:32:07;4.25;;;1.70;;
41943;SDS011;27636;52.610;13.244;2023-12-20T18:37:11;2.70;;;1.00;;
41943;SDS011;27636;52.610;13.244;2023-12-20T18:42:16;9.50;;;1.42;;
41943;SDS011;27636;52.610;13.244;2023-12-20T18:47:21;2.35;;;1.23;;
41943;SDS011;27636;52.610;13.244;2023-12-20T18:52:25;1.85;;;0.85;;
41943;SDS011;27636;52.610;13.244;2023-12-20T18:57:32;4.97;;;0.70;;
41943;SDS011;27636;52.610;13.244;2023-12-20T19:07:41;3.58;;;1.25;;
41943;SDS011;27636;52.610;13.244;2023-12-20T19:12:46;3.72;;;1.60;;
41943;SDS011;27636;52.610;13.244;2023-12-20T19:17:51;2.90;;;1.60;;
41943;SDS011;27636;52.610;13.244;2023-12-20T19:22:54;3.25;;;0.88;;
41943;SDS011;27636;52.610;13.244;2023-12-20T19:28:00;6.82;;;1.75;;
41943;SDS011;27636;52.610;13.244;2023-12-20T19:33:04;1.60;;;0.82;;
41943;SDS011;27636;52.610;13.244;2023-12-20T19:38:08;2.75;;;1.60;;
41943;SDS011;27636;52.610;13.244;2023-12-20T19:43:13;4.78;;;1.20;;
41943;SDS011;27636;52.610;13.244;2023-12-20T19:48:17;2.67;;;1.25;;
41943;SDS011;27636;52.610;13.244;2023-12-20T19:53:21;3.13;;;1.53;;
41943;SDS011;27636;52.610;13.244;2023-12-20T19:58:31;7.93;;;1.58;;
41943;SDS011;27636;52.610;13.244;2023-12-20T20:03:35;7.40;;;1.25;;
41943;SDS011;27636;52.610;13.244;2023-12-20T20:08:40;2.70;;;1.13;;
41943;SDS011;27636;52.610;13.244;2023-12-20T20:13:45;3.00;;;1.20;;
41943;SDS011;27636;52.610;13.244;2023-12-20T20:23:53;2.17;;;1.23;;
41943;SDS011;27636;52.610;13.244;2023-12-20T20:28:59;6.22;;;1.42;;
41943;SDS011;27636;52.610;13.244;2023-12-20T20:34:06;4.22;;;1.45;;
41943;SDS011;27636;52.610;13.244;2023-12-20T20:39:10;2.80;;;1.77;;
41943;SDS011;27636;52.610;13.244;2023-12-20T20:44:17;1.98;;;0.68;;
41943;SDS011;27636;52.610;13.244;2023-12-20T20:49:21;9.73;;;1.38;;
41943;SDS011;27636;52.610;13.244;2023-12-20T20:54:28;8.45;;;1.40;;
41943;SDS011;27636;52.610;13.244;2023-12-20T20:59:33;4.85;;;1.35;;
41943;SDS011;27636;52.610;13.244;2023-12-20T21:04:38;1.80;;;1.02;;
41943;SDS011;27636;52.610;13.244;2023-12-20T21:09:41;4.00;;;1.42;;
41943;SDS011;27636;52.610;13.244;2023-12-20T21:14:46;0.77;;;0.52;;
41943;SDS011;27636;52.610;13.244;2023-12-20T21:19:51;2.67;;;0.95;;
41943;SDS011;27636;52.610;13.244;2023-12-20T21:24:55;2.38;;;1.40;;
41943;SDS011;27636;52.610;13.244;2023-12-20T21:30:00;7.65;;;1.73;;
41943;SDS011;27636;52.610;13.244;2023-12-20T21:35:05;2.05;;;0.95;;
41943;SDS011;27636;52.610;13.244;2023-12-20T21:40:10;4.75;;;1.92;;
41943;SDS011;27636;52.610;13.244;2023-12-20T21:45:16;2.67;;;1.30;;
41943;SDS011;27636;52.610;13.244;2023-12-20T21:50:20;0.73;;;0.50;;
41943;SDS011;27636;52.610;13.244;2023-12-20T21:55:25;2.37;;;1.20;;
41943;SDS011;27636;52.610;13.244;2023-12-20T22:00:32;3.35;;;1.50;;
41943;SDS011;27636;52.610;13.244;2023-12-20T22:05:36;6.28;;;1.17;;
41943;SDS011;27636;52.610;13.244;2023-12-20T22:10:42;2.85;;;1.08;;
41943;SDS011;27636;52.610;13.244;2023-12-20T22:15:48;4.47;;;1.15;;
41943;SDS011;27636;52.610;13.244;2023-12-20T22:20:53;1.95;;;0.95;;
41943;SDS011;27636;52.610;13.244;2023-12-20T22:25:56;5.10;;;1.02;;
41943;SDS011;27636;52.610;13.244;2023-12-20T22:31:02;2.13;;;0.77;;
41943;SDS011;27636;52.610;13.244;2023-12-20T22:36:07;3.60;;;1.48;;
41943;SDS011;27636;52.610;13.244;2023-12-20T22:41:11;4.75;;;1.02;;
41943;SDS011;27636;52.610;13.244;2023-12-20T22:46:17;1.15;;;0.70;;
41943;SDS011;27636;52.610;13.244;2023-12-20T22:51:22;2.10;;;1.02;;
41943;SDS011;27636;52.610;13.244;2023-12-20T22:56:26;2.77;;;0.70;;
41943;SDS011;27636;52.610;13.244;2023-12-20T23:01:32;0.73;;;0.68;;
41943;SDS011;27636;52.610;13.244;2023-12-20T23:06:36;1.75;;;0.80;;
41943;SDS011;27636;52.610;13.244;2023-12-20T23:11:41;4.67;;;1.07;;
41943;SDS011;27636;52.610;13.244;2023-12-20T23:16:47;1.35;;;0.80;;
41943;SDS011;27636;52.610;13.244;2023-12-20T23:21:52;3.30;;;0.60;;
41943;SDS011;27636;52.610;13.244;2023-12-20T23:26:56;5.97;;;0.67;;
41943;SDS011;27636;52.610;13.244;2023-12-20T23:32:01;2.70;;;1.15;;
41943;SDS011;27636;52.610;13.244;2023-12-20T23:37:06;1.40;;;0.75;;
41943;SDS011;27636;52.610;13.244;2023-12-20T23:42:11;4.32;;;1.20;;
41943;SDS011;27636;52.610;13.244;2023-12-20T23:47:18;1.48;;;0.82;;
41943;SDS011;27636;52.610;13.244;2023-12-20T23:52:22;2.60;;;1.52;;
41943;SDS011;27636;52.610;13.244;2023-12-20T23:57:26;7.55;;;1.42;;
